sensor_id;sensor_type;location;lat;lon;timestamp;temperature;humidity
73277;DHT22;61501;43.316;5.372;2023-12-07T00:00:50;6.20;99.90
73277;DHT22;61501;43.316;5.372;2023-12-07T00:03:16;6.20;99.90
73277;DHT22;61501;43.316;5.372;2023-12-07T00:05:41;6.20;99.90
73277;DHT22;61501;43.316;5.372;2023-12-07T00:08:10;6.20;99.90
73277;DHT22;61501;43.316;5.372;2023-12-07T00:10:36;6.20;99.90
73277;DHT22;61501;43.316;5.372;2023-12-07T00:13:02;6.20;99.90
73277;DHT22;61501;43.316;5.372;2023-12-07T00:15:28;6.10;99.90
73277;DHT22;61501;43.316;5.372;2023-12-07T00:17:53;6.00;99.90
73277;DHT22;61501;43.316;5.372;2023-12-07T00:20:19;6.00;99.90
73277;DHT22;61501;43.316;5.372;2023-12-07T00:22:45;5.90;99.90
73277;DHT22;61501;43.316;5.372;2023-12-07T00:25:11;5.90;99.90
73277;DHT22;61501;43.316;5.372;2023-12-07T00:27:36;5.90;99.90
73277;DHT22;61501;43.316;5.372;2023-12-07T00:30:02;6.00;99.90
73277;DHT22;61501;43.316;5.372;2023-12-07T00:32:29;6.00;99.90
73277;DHT22;61501;43.316;5.372;2023-12-07T00:34:54;6.10;99.90
73277;DHT22;61501;43.316;5.372;2023-12-07T00:37:20;6.10;99.90
73277;DHT22;61501;43.316;5.372;2023-12-07T00:39:46;6.10;99.90
73277;DHT22;61501;43.316;5.372;2023-12-07T00:42:11;6.10;99.90
73277;DHT22;61501;43.316;5.372;2023-12-07T00:44:40;6.20;99.90
73277;DHT22;61501;43.316;5.372;2023-12-07T00:47:06;6.10;99.90
73277;DHT22;61501;43.316;5.372;2023-12-07T00:49:32;6.10;99.90
73277;DHT22;61501;43.316;5.372;2023-12-07T00:51:57;6.10;99.90
73277;DHT22;61501;43.316;5.372;2023-12-07T00:54:23;6.10;99.90
73277;DHT22;61501;43.316;5.372;2023-12-07T00:56:49;6.10;99.90
73277;DHT22;61501;43.316;5.372;2023-12-07T00:59:14;5.90;99.90
73277;DHT22;61501;43.316;5.372;2023-12-07T01:01:40;6.00;99.90
73277;DHT22;61501;43.316;5.372;2023-12-07T01:04:06;6.00;99.90
73277;DHT22;61501;43.316;5.372;2023-12-07T01:06:31;6.00;99.90
73277;DHT22;61501;43.316;5.372;2023-12-07T01:08:57;6.00;99.90
73277;DHT22;61501;43.316;5.372;2023-12-07T01:11:23;6.00;99.90
73277;DHT22;61501;43.316;5.372;2023-12-07T01:13:48;6.00;99.90
73277;DHT22;61501;43.316;5.372;2023-12-07T01:16:14;6.00;99.90
73277;DHT22;61501;43.316;5.372;2023-12-07T01:18:40;5.90;99.90
73277;DHT22;61501;43.316;5.372;2023-12-07T01:21:06;5.90;99.90
73277;DHT22;61501;43.316;5.372;2023-12-07T01:23:32;5.90;99.90
73277;DHT22;61501;43.316;5.372;2023-12-07T01:25:57;5.90;99.90
73277;DHT22;61501;43.316;5.372;2023-12-07T01:28:26;5.90;99.90
73277;DHT22;61501;43.316;5.372;2023-12-07T01:30:51;5.90;99.90
73277;DHT22;61501;43.316;5.372;2023-12-07T01:33:17;5.90;99.90
73277;DHT22;61501;43.316;5.372;2023-12-07T01:35:42;5.90;99.90
73277;DHT22;61501;43.316;5.372;2023-12-07T01:38:08;5.90;99.90
73277;DHT22;61501;43.316;5.372;2023-12-07T01:40:34;5.80;99.90
73277;DHT22;61501;43.316;5.372;2023-12-07T01:43:00;5.90;99.90
73277;DHT22;61501;43.316;5.372;2023-12-07T01:45:25;5.90;99.90
73277;DHT22;61501;43.316;5.372;2023-12-07T01:47:52;5.80;99.90
73277;DHT22;61501;43.316;5.372;2023-12-07T01:50:20;5.80;99.90
73277;DHT22;61501;43.316;5.372;2023-12-07T01:52:51;5.80;99.90
73277;DHT22;61501;43.316;5.372;2023-12-07T01:55:18;5.70;99.90
73277;DHT22;61501;43.316;5.372;2023-12-07T01:57:45;5.80;99.90
73277;DHT22;61501;43.316;5.372;2023-12-07T02:00:12;5.80;99.90
73277;DHT22;61501;43.316;5.372;2023-12-07T02:02:38;5.70;99.90
73277;DHT22;61501;43.316;5.372;2023-12-07T02:05:05;5.60;99.90
73277;DHT22;61501;43.316;5.372;2023-12-07T02:07:31;5.60;99.90
73277;DHT22;61501;43.316;5.372;2023-12-07T02:09:58;5.60;99.90
73277;DHT22;61501;43.316;5.372;2023-12-07T02:12:24;5.60;99.90
73277;DHT22;61501;43.316;5.372;2023-12-07T02:14:51;5.60;99.90
73277;DHT22;61501;43.316;5.372;2023-12-07T02:23:04;5.50;99.90
73277;DHT22;61501;43.316;5.372;2023-12-07T02:25:48;5.60;99.90
73277;DHT22;61501;43.316;5.372;2023-12-07T02:28:16;5.50;99.90
73277;DHT22;61501;43.316;5.372;2023-12-07T02:30:42;5.50;99.90
73277;DHT22;61501;43.316;5.372;2023-12-07T02:33:08;5.50;99.90
73277;DHT22;61501;43.316;5.372;2023-12-07T02:35:36;5.50;99.90
73277;DHT22;61501;43.316;5.372;2023-12-07T02:38:02;5.60;99.90
73277;DHT22;61501;43.316;5.372;2023-12-07T02:40:29;5.50;99.90
73277;DHT22;61501;43.316;5.372;2023-12-07T02:42:56;5.50;99.90
73277;DHT22;61501;43.316;5.372;2023-12-07T02:45:22;5.40;99.90
73277;DHT22;61501;43.316;5.372;2023-12-07T02:47:48;5.40;99.90
73277;DHT22;61501;43.316;5.372;2023-12-07T02:50:14;5.40;99.90
73277;DHT22;61501;43.316;5.372;2023-12-07T02:52:40;5.40;99.90
73277;DHT22;61501;43.316;5.372;2023-12-07T02:55:06;5.40;99.90
73277;DHT22;61501;43.316;5.372;2023-12-07T02:57:32;5.40;99.90
73277;DHT22;61501;43.316;5.372;2023-12-07T03:00:04;5.40;99.90
73277;DHT22;61501;43.316;5.372;2023-12-07T03:02:37;5.30;99.90
73277;DHT22;61501;43.316;5.372;2023-12-07T03:05:03;5.30;99.90
73277;DHT22;61501;43.316;5.372;2023-12-07T03:07:29;5.30;99.90
73277;DHT22;61501;43.316;5.372;2023-12-07T03:09:55;5.30;99.90
73277;DHT22;61501;43.316;5.372;2023-12-07T03:12:21;5.30;99.90
73277;DHT22;61501;43.316;5.372;2023-12-07T03:14:46;5.40;99.90
73277;DHT22;61501;43.316;5.372;2023-12-07T03:17:13;5.40;99.90
73277;DHT22;61501;43.316;5.372;2023-12-07T03:19:41;5.30;99.90
73277;DHT22;61501;43.316;5.372;2023-12-07T03:22:07;5.30;99.90
73277;DHT22;61501;43.316;5.372;2023-12-07T03:24:37;5.30;99.90
73277;DHT22;61501;43.316;5.372;2023-12-07T03:27:04;5.20;99.90
73277;DHT22;61501;43.316;5.372;2023-12-07T03:29:31;5.30;99.90
73277;DHT22;61501;43.316;5.372;2023-12-07T03:31:57;5.20;99.90
73277;DHT22;61501;43.316;5.372;2023-12-07T03:34:24;5.20;99.90
73277;DHT22;61501;43.316;5.372;2023-12-07T03:36:49;5.20;99.90
73277;DHT22;61501;43.316;5.372;2023-12-07T03:39:16;5.20;99.90
73277;DHT22;61501;43.316;5.372;2023-12-07T03:41:44;5.20;99.90
73277;DHT22;61501;43.316;5.372;2023-12-07T03:44:10;5.20;99.90
73277;DHT22;61501;43.316;5.372;2023-12-07T03:46:35;5.20;99.90
73277;DHT22;61501;43.316;5.372;2023-12-07T03:49:01;5.10;99.90
73277;DHT22;61501;43.316;5.372;2023-12-07T03:51:28;5.10;99.90
73277;DHT22;61501;43.316;5.372;2023-12-07T03:53:56;5.10;99.90
73277;DHT22;61501;43.316;5.372;2023-12-07T03:56:27;5.00;99.90
73277;DHT22;61501;43.316;5.372;2023-12-07T03:58:53;5.00;99.90
73277;DHT22;61501;43.316;5.372;2023-12-07T04:01:25;5.00;99.90
73277;DHT22;61501;43.316;5.372;2023-12-07T04:03:51;4.90;99.90
73277;DHT22;61501;43.316;5.372;2023-12-07T04:06:17;4.90;99.90
73277;DHT22;61501;43.316;5.372;2023-12-07T04:08:44;4.90;99.90
73277;DHT22;61501;43.316;5.372;2023-12-07T04:11:10;5.00;99.90
73277;DHT22;61501;43.316;5.372;2023-12-07T04:13:35;5.00;99.90
73277;DHT22;61501;43.316;5.372;2023-12-07T04:16:01;5.00;99.90
73277;DHT22;61501;43.316;5.372;2023-12-07T04:18:28;4.90;99.90
73277;DHT22;61501;43.316;5.372;2023-12-07T04:20:54;4.90;99.90
73277;DHT22;61501;43.316;5.372;2023-12-07T04:23:19;5.00;99.90
73277;DHT22;61501;43.316;5.372;2023-12-07T04:25:45;5.00;99.90
73277;DHT22;61501;43.316;5.372;2023-12-07T04:28:11;4.90;99.90
73277;DHT22;61501;43.316;5.372;2023-12-07T04:30:36;4.90;99.90
73277;DHT22;61501;43.316;5.372;2023-12-07T04:33:05;4.90;99.90
73277;DHT22;61501;43.316;5.372;2023-12-07T04:35:31;4.90;99.90
73277;DHT22;61501;43.316;5.372;2023-12-07T04:37:57;4.90;99.90
73277;DHT22;61501;43.316;5.372;2023-12-07T04:40:24;5.00;99.90
73277;DHT22;61501;43.316;5.372;2023-12-07T04:42:50;4.90;99.90
73277;DHT22;61501;43.316;5.372;2023-12-07T04:45:16;4.90;99.90
73277;DHT22;61501;43.316;5.372;2023-12-07T04:47:41;4.90;99.90
73277;DHT22;61501;43.316;5.372;2023-12-07T04:50:07;4.90;99.90
73277;DHT22;61501;43.316;5.372;2023-12-07T04:52:33;5.00;99.90
73277;DHT22;61501;43.316;5.372;2023-12-07T04:54:59;5.00;99.90
73277;DHT22;61501;43.316;5.372;2023-12-07T04:57:25;4.90;99.90
73277;DHT22;61501;43.316;5.372;2023-12-07T04:59:50;4.90;99.90
73277;DHT22;61501;43.316;5.372;2023-12-07T05:02:17;4.80;99.90
73277;DHT22;61501;43.316;5.372;2023-12-07T05:04:43;4.90;99.90
73277;DHT22;61501;43.316;5.372;2023-12-07T05:07:09;4.80;99.90
73277;DHT22;61501;43.316;5.372;2023-12-07T05:09:34;4.90;99.90
73277;DHT22;61501;43.316;5.372;2023-12-07T05:12:00;4.90;99.90
73277;DHT22;61501;43.316;5.372;2023-12-07T05:14:26;4.90;99.90
73277;DHT22;61501;43.316;5.372;2023-12-07T05:16:52;4.90;99.90
73277;DHT22;61501;43.316;5.372;2023-12-07T05:19:24;4.90;99.90
73277;DHT22;61501;43.316;5.372;2023-12-07T05:21:51;4.90;99.90
73277;DHT22;61501;43.316;5.372;2023-12-07T05:24:16;4.80;99.90
73277;DHT22;61501;43.316;5.372;2023-12-07T05:26:43;4.80;99.90
73277;DHT22;61501;43.316;5.372;2023-12-07T05:29:08;4.80;99.90
73277;DHT22;61501;43.316;5.372;2023-12-07T05:31:35;4.80;99.90
73277;DHT22;61501;43.316;5.372;2023-12-07T05:34:01;4.80;99.90
73277;DHT22;61501;43.316;5.372;2023-12-07T05:36:26;4.80;99.90
73277;DHT22;61501;43.316;5.372;2023-12-07T05:38:52;4.80;99.90
73277;DHT22;61501;43.316;5.372;2023-12-07T05:41:18;4.70;99.90
73277;DHT22;61501;43.316;5.372;2023-12-07T05:43:44;4.80;99.90
73277;DHT22;61501;43.316;5.372;2023-12-07T05:46:09;4.70;99.90
73277;DHT22;61501;43.316;5.372;2023-12-07T05:48:35;4.70;99.90
73277;DHT22;61501;43.316;5.372;2023-12-07T05:51:02;4.80;99.90
73277;DHT22;61501;43.316;5.372;2023-12-07T05:53:28;4.70;99.90
73277;DHT22;61501;43.316;5.372;2023-12-07T05:55:57;4.80;99.90
73277;DHT22;61501;43.316;5.372;2023-12-07T05:58:22;4.70;99.90
73277;DHT22;61501;43.316;5.372;2023-12-07T06:00:48;4.70;99.90
73277;DHT22;61501;43.316;5.372;2023-12-07T06:03:14;4.60;99.90
73277;DHT22;61501;43.316;5.372;2023-12-07T06:05:41;4.50;99.90
73277;DHT22;61501;43.316;5.372;2023-12-07T06:08:07;4.50;99.90
73277;DHT22;61501;43.316;5.372;2023-12-07T06:10:32;4.50;99.90
73277;DHT22;61501;43.316;5.372;2023-12-07T06:12:58;4.50;99.90
73277;DHT22;61501;43.316;5.372;2023-12-07T06:15:26;4.50;99.90
73277;DHT22;61501;43.316;5.372;2023-12-07T06:17:53;4.50;99.90
73277;DHT22;61501;43.316;5.372;2023-12-07T06:20:19;4.40;99.90
73277;DHT22;61501;43.316;5.372;2023-12-07T06:22:45;4.50;99.90
73277;DHT22;61501;43.316;5.372;2023-12-07T06:25:11;4.50;99.90
73277;DHT22;61501;43.316;5.372;2023-12-07T06:27:37;4.50;99.90
73277;DHT22;61501;43.316;5.372;2023-12-07T06:30:04;4.60;99.90
73277;DHT22;61501;43.316;5.372;2023-12-07T06:32:31;4.60;99.90
73277;DHT22;61501;43.316;5.372;2023-12-07T06:34:57;4.60;99.90
73277;DHT22;61501;43.316;5.372;2023-12-07T06:37:23;4.50;99.90
73277;DHT22;61501;43.316;5.372;2023-12-07T06:39:48;4.60;99.90
73277;DHT22;61501;43.316;5.372;2023-12-07T06:42:14;4.60;99.90
73277;DHT22;61501;43.316;5.372;2023-12-07T06:44:42;4.60;99.90
73277;DHT22;61501;43.316;5.372;2023-12-07T06:47:08;4.60;99.90
73277;DHT22;61501;43.316;5.372;2023-12-07T06:49:35;4.60;99.90
73277;DHT22;61501;43.316;5.372;2023-12-07T06:52:01;4.60;99.90
73277;DHT22;61501;43.316;5.372;2023-12-07T06:54:27;4.60;99.90
73277;DHT22;61501;43.316;5.372;2023-12-07T06:56:52;4.60;99.90
73277;DHT22;61501;43.316;5.372;2023-12-07T06:59:19;4.60;99.90
73277;DHT22;61501;43.316;5.372;2023-12-07T07:01:45;4.50;99.90
73277;DHT22;61501;43.316;5.372;2023-12-07T07:04:11;4.50;99.90
73277;DHT22;61501;43.316;5.372;2023-12-07T07:06:39;4.50;99.90
73277;DHT22;61501;43.316;5.372;2023-12-07T07:09:05;4.60;99.90
73277;DHT22;61501;43.316;5.372;2023-12-07T07:11:31;4.60;99.90
73277;DHT22;61501;43.316;5.372;2023-12-07T07:13:56;4.60;99.90
73277;DHT22;61501;43.316;5.372;2023-12-07T07:16:22;4.70;99.90
73277;DHT22;61501;43.316;5.372;2023-12-07T07:18:47;4.70;99.90
73277;DHT22;61501;43.316;5.372;2023-12-07T07:21:13;4.70;99.90
73277;DHT22;61501;43.316;5.372;2023-12-07T07:23:39;4.70;99.90
73277;DHT22;61501;43.316;5.372;2023-12-07T07:26:04;4.70;99.90
73277;DHT22;61501;43.316;5.372;2023-12-07T07:28:30;4.60;99.90
73277;DHT22;61501;43.316;5.372;2023-12-07T07:30:56;4.70;99.90
73277;DHT22;61501;43.316;5.372;2023-12-07T07:33:22;4.70;99.90
73277;DHT22;61501;43.316;5.372;2023-12-07T07:35:47;4.70;99.90
73277;DHT22;61501;43.316;5.372;2023-12-07T07:38:13;4.80;99.90
73277;DHT22;61501;43.316;5.372;2023-12-07T07:40:39;4.80;99.90
73277;DHT22;61501;43.316;5.372;2023-12-07T07:43:05;4.80;99.90
73277;DHT22;61501;43.316;5.372;2023-12-07T07:45:31;4.80;99.90
73277;DHT22;61501;43.316;5.372;2023-12-07T07:47:57;4.90;99.90
73277;DHT22;61501;43.316;5.372;2023-12-07T07:50:22;4.90;99.90
73277;DHT22;61501;43.316;5.372;2023-12-07T07:52:48;4.90;99.90
73277;DHT22;61501;43.316;5.372;2023-12-07T07:55:13;5.10;99.90
73277;DHT22;61501;43.316;5.372;2023-12-07T07:57:39;5.10;99.90
73277;DHT22;61501;43.316;5.372;2023-12-07T08:00:05;5.20;99.90
73277;DHT22;61501;43.316;5.372;2023-12-07T08:02:33;5.20;99.90
73277;DHT22;61501;43.316;5.372;2023-12-07T08:04:59;5.20;99.90
73277;DHT22;61501;43.316;5.372;2023-12-07T08:07:25;5.30;99.90
73277;DHT22;61501;43.316;5.372;2023-12-07T08:09:50;5.30;99.90
73277;DHT22;61501;43.316;5.372;2023-12-07T08:12:16;5.40;99.90
73277;DHT22;61501;43.316;5.372;2023-12-07T08:14:42;5.30;99.90
73277;DHT22;61501;43.316;5.372;2023-12-07T08:17:09;5.40;99.90
73277;DHT22;61501;43.316;5.372;2023-12-07T08:19:36;5.60;99.90
73277;DHT22;61501;43.316;5.372;2023-12-07T08:22:02;5.70;99.90
73277;DHT22;61501;43.316;5.372;2023-12-07T08:24:27;5.70;99.90
73277;DHT22;61501;43.316;5.372;2023-12-07T08:26:53;5.80;99.90
73277;DHT22;61501;43.316;5.372;2023-12-07T08:29:18;6.00;99.90
73277;DHT22;61501;43.316;5.372;2023-12-07T08:31:44;6.10;99.90
73277;DHT22;61501;43.316;5.372;2023-12-07T08:34:10;6.20;99.90
73277;DHT22;61501;43.316;5.372;2023-12-07T08:36:36;6.30;99.90
73277;DHT22;61501;43.316;5.372;2023-12-07T08:39:01;6.30;99.90
73277;DHT22;61501;43.316;5.372;2023-12-07T08:41:27;6.40;99.90
73277;DHT22;61501;43.316;5.372;2023-12-07T08:43:52;6.50;99.90
73277;DHT22;61501;43.316;5.372;2023-12-07T08:46:18;6.60;99.90
73277;DHT22;61501;43.316;5.372;2023-12-07T08:48:43;6.80;99.90
73277;DHT22;61501;43.316;5.372;2023-12-07T08:51:10;6.90;98.70
73277;DHT22;61501;43.316;5.372;2023-12-07T08:53:35;6.90;98.70
73277;DHT22;61501;43.316;5.372;2023-12-07T08:56:01;6.90;98.00
73277;DHT22;61501;43.316;5.372;2023-12-07T08:58:27;6.90;98.90
73277;DHT22;61501;43.316;5.372;2023-12-07T09:00:53;7.00;98.00
73277;DHT22;61501;43.316;5.372;2023-12-07T09:03:19;7.20;98.10
73277;DHT22;61501;43.316;5.372;2023-12-07T09:05:44;7.20;96.00
73277;DHT22;61501;43.316;5.372;2023-12-07T09:08:10;7.30;96.20
73277;DHT22;61501;43.316;5.372;2023-12-07T09:10:36;7.30;95.30
73277;DHT22;61501;43.316;5.372;2023-12-07T09:13:01;7.50;95.90
73277;DHT22;61501;43.316;5.372;2023-12-07T09:15:27;7.50;95.10
73277;DHT22;61501;43.316;5.372;2023-12-07T09:17:54;7.70;94.20
73277;DHT22;61501;43.316;5.372;2023-12-07T09:20:20;7.60;94.30
73277;DHT22;61501;43.316;5.372;2023-12-07T09:22:46;7.60;94.20
73277;DHT22;61501;43.316;5.372;2023-12-07T09:25:13;7.70;94.50
73277;DHT22;61501;43.316;5.372;2023-12-07T09:27:39;7.80;94.70
73277;DHT22;61501;43.316;5.372;2023-12-07T09:30:08;7.90;94.10
73277;DHT22;61501;43.316;5.372;2023-12-07T09:32:38;7.90;94.20
73277;DHT22;61501;43.316;5.372;2023-12-07T09:35:08;7.90;94.50
73277;DHT22;61501;43.316;5.372;2023-12-07T09:37:35;8.10;93.50
73277;DHT22;61501;43.316;5.372;2023-12-07T09:40:01;8.20;94.40
73277;DHT22;61501;43.316;5.372;2023-12-07T09:42:30;8.20;94.60
73277;DHT22;61501;43.316;5.372;2023-12-07T09:44:55;8.20;93.60
73277;DHT22;61501;43.316;5.372;2023-12-07T09:47:21;8.30;94.50
73277;DHT22;61501;43.316;5.372;2023-12-07T09:49:47;8.50;94.20
73277;DHT22;61501;43.316;5.372;2023-12-07T09:52:13;8.50;93.10
73277;DHT22;61501;43.316;5.372;2023-12-07T09:54:41;8.60;93.50
73277;DHT22;61501;43.316;5.372;2023-12-07T09:57:07;8.60;93.80
73277;DHT22;61501;43.316;5.372;2023-12-07T09:59:36;8.80;93.30
73277;DHT22;61501;43.316;5.372;2023-12-07T10:02:02;8.70;92.40
73277;DHT22;61501;43.316;5.372;2023-12-07T10:04:28;8.80;93.00
73277;DHT22;61501;43.316;5.372;2023-12-07T10:06:54;8.90;92.90
73277;DHT22;61501;43.316;5.372;2023-12-07T10:09:20;8.90;92.20
73277;DHT22;61501;43.316;5.372;2023-12-07T10:11:47;9.10;91.80
73277;DHT22;61501;43.316;5.372;2023-12-07T10:14:13;9.30;91.70
73277;DHT22;61501;43.316;5.372;2023-12-07T10:16:52;9.50;91.10
73277;DHT22;61501;43.316;5.372;2023-12-07T10:19:21;9.50;90.60
73277;DHT22;61501;43.316;5.372;2023-12-07T10:21:51;9.50;90.20
73277;DHT22;61501;43.316;5.372;2023-12-07T10:24:22;9.70;89.60
73277;DHT22;61501;43.316;5.372;2023-12-07T10:26:49;9.70;89.50
73277;DHT22;61501;43.316;5.372;2023-12-07T10:29:18;9.90;89.40
73277;DHT22;61501;43.316;5.372;2023-12-07T10:31:45;10.00;86.60
73277;DHT22;61501;43.316;5.372;2023-12-07T10:34:12;10.20;87.30
73277;DHT22;61501;43.316;5.372;2023-12-07T10:36:38;10.30;86.40
73277;DHT22;61501;43.316;5.372;2023-12-07T10:39:04;10.30;85.60
73277;DHT22;61501;43.316;5.372;2023-12-07T10:41:34;10.30;84.80
73277;DHT22;61501;43.316;5.372;2023-12-07T10:44:01;10.40;84.70
73277;DHT22;61501;43.316;5.372;2023-12-07T10:46:27;10.50;83.40
73277;DHT22;61501;43.316;5.372;2023-12-07T10:49:04;10.70;83.10
73277;DHT22;61501;43.316;5.372;2023-12-07T10:51:48;10.80;81.70
73277;DHT22;61501;43.316;5.372;2023-12-07T10:54:18;10.90;81.20
73277;DHT22;61501;43.316;5.372;2023-12-07T10:56:46;11.00;80.20
73277;DHT22;61501;43.316;5.372;2023-12-07T10:59:12;11.10;80.50
73277;DHT22;61501;43.316;5.372;2023-12-07T11:01:42;11.20;80.10
73277;DHT22;61501;43.316;5.372;2023-12-07T11:04:11;11.20;78.80
73277;DHT22;61501;43.316;5.372;2023-12-07T11:06:39;11.30;77.50
73277;DHT22;61501;43.316;5.372;2023-12-07T11:09:09;11.30;76.80
73277;DHT22;61501;43.316;5.372;2023-12-07T11:11:43;11.20;75.80
73277;DHT22;61501;43.316;5.372;2023-12-07T11:14:11;11.20;75.20
73277;DHT22;61501;43.316;5.372;2023-12-07T11:16:42;11.40;74.30
73277;DHT22;61501;43.316;5.372;2023-12-07T11:22:05;11.40;72.40
73277;DHT22;61501;43.316;5.372;2023-12-07T11:24:31;11.30;74.00
73277;DHT22;61501;43.316;5.372;2023-12-07T11:26:57;11.70;73.00
73277;DHT22;61501;43.316;5.372;2023-12-07T11:29:28;11.70;71.40
73277;DHT22;61501;43.316;5.372;2023-12-07T11:32:01;11.70;72.40
73277;DHT22;61501;43.316;5.372;2023-12-07T11:34:39;11.70;72.40
73277;DHT22;61501;43.316;5.372;2023-12-07T11:37:09;11.50;72.80
73277;DHT22;61501;43.316;5.372;2023-12-07T11:39:41;11.80;74.20
73277;DHT22;61501;43.316;5.372;2023-12-07T11:42:11;12.80;72.60
73277;DHT22;61501;43.316;5.372;2023-12-07T11:44:40;16.60;63.60
73277;DHT22;61501;43.316;5.372;2023-12-07T11:47:07;19.00;55.40
73277;DHT22;61501;43.316;5.372;2023-12-07T11:49:34;18.70;54.80
73277;DHT22;61501;43.316;5.372;2023-12-07T11:52:01;15.70;63.50
73277;DHT22;61501;43.316;5.372;2023-12-07T11:54:37;15.40;66.80
73277;DHT22;61501;43.316;5.372;2023-12-07T11:57:03;15.70;64.70
73277;DHT22;61501;43.316;5.372;2023-12-07T11:59:29;17.50;60.80
73277;DHT22;61501;43.316;5.372;2023-12-07T12:01:54;18.30;58.10
73277;DHT22;61501;43.316;5.372;2023-12-07T12:04:21;18.90;55.80
73277;DHT22;61501;43.316;5.372;2023-12-07T12:06:47;18.50;55.20
73277;DHT22;61501;43.316;5.372;2023-12-07T12:09:14;17.60;57.80
73277;DHT22;61501;43.316;5.372;2023-12-07T12:11:46;15.70;64.40
73277;DHT22;61501;43.316;5.372;2023-12-07T12:14:14;17.70;62.00
73277;DHT22;61501;43.316;5.372;2023-12-07T12:16:40;19.40;57.20
73277;DHT22;61501;43.316;5.372;2023-12-07T12:19:06;18.90;56.20
73277;DHT22;61501;43.316;5.372;2023-12-07T12:21:39;17.90;59.10
73277;DHT22;61501;43.316;5.372;2023-12-07T12:24:05;16.70;64.20
73277;DHT22;61501;43.316;5.372;2023-12-07T12:26:36;18.70;61.00
73277;DHT22;61501;43.316;5.372;2023-12-07T12:29:04;20.40;55.80
73277;DHT22;61501;43.316;5.372;2023-12-07T12:31:31;19.00;57.10
73277;DHT22;61501;43.316;5.372;2023-12-07T12:33:57;17.20;62.80
73277;DHT22;61501;43.316;5.372;2023-12-07T12:36:23;16.40;66.30
73277;DHT22;61501;43.316;5.372;2023-12-07T12:38:52;15.70;69.50
73277;DHT22;61501;43.316;5.372;2023-12-07T12:41:22;15.10;72.90
73277;DHT22;61501;43.316;5.372;2023-12-07T12:43:48;14.90;74.50
73277;DHT22;61501;43.316;5.372;2023-12-07T12:46:15;15.00;75.50
73277;DHT22;61501;43.316;5.372;2023-12-07T12:48:58;15.50;74.40
73277;DHT22;61501;43.316;5.372;2023-12-07T12:51:26;15.90;72.40
73277;DHT22;61501;43.316;5.372;2023-12-07T12:53:53;16.00;72.30
73277;DHT22;61501;43.316;5.372;2023-12-07T12:56:19;16.90;71.40
73277;DHT22;61501;43.316;5.372;2023-12-07T12:58:49;17.70;69.00
73277;DHT22;61501;43.316;5.372;2023-12-07T13:01:19;18.60;66.90
73277;DHT22;61501;43.316;5.372;2023-12-07T13:03:46;18.50;64.80
73277;DHT22;61501;43.316;5.372;2023-12-07T13:06:13;18.20;64.40
73277;DHT22;61501;43.316;5.372;2023-12-07T13:08:40;17.80;66.70
73277;DHT22;61501;43.316;5.372;2023-12-07T13:11:06;17.70;66.30
73277;DHT22;61501;43.316;5.372;2023-12-07T13:13:32;18.10;64.90
73277;DHT22;61501;43.316;5.372;2023-12-07T13:15:57;18.60;63.00
73277;DHT22;61501;43.316;5.372;2023-12-07T13:18:23;18.80;60.90
73277;DHT22;61501;43.316;5.372;2023-12-07T13:20:48;19.40;58.40
73277;DHT22;61501;43.316;5.372;2023-12-07T13:23:14;19.40;59.10
73277;DHT22;61501;43.316;5.372;2023-12-07T13:25:40;20.20;56.00
73277;DHT22;61501;43.316;5.372;2023-12-07T13:28:06;19.80;52.20
73277;DHT22;61501;43.316;5.372;2023-12-07T13:30:34;19.40;58.00
73277;DHT22;61501;43.316;5.372;2023-12-07T13:33:01;19.90;58.00
73277;DHT22;61501;43.316;5.372;2023-12-07T13:35:27;19.40;58.40
73277;DHT22;61501;43.316;5.372;2023-12-07T13:37:53;19.50;57.90
73277;DHT22;61501;43.316;5.372;2023-12-07T13:40:18;19.40;56.60
73277;DHT22;61501;43.316;5.372;2023-12-07T13:42:44;19.40;56.50
73277;DHT22;61501;43.316;5.372;2023-12-07T13:45:10;18.50;57.80
73277;DHT22;61501;43.316;5.372;2023-12-07T13:47:35;18.20;60.60
73277;DHT22;61501;43.316;5.372;2023-12-07T13:50:04;17.90;60.20
73277;DHT22;61501;43.316;5.372;2023-12-07T13:52:30;17.30;62.20
73277;DHT22;61501;43.316;5.372;2023-12-07T13:54:57;17.00;62.90
73277;DHT22;61501;43.316;5.372;2023-12-07T13:57:23;16.40;65.00
73277;DHT22;61501;43.316;5.372;2023-12-07T13:59:53;15.90;67.20
73277;DHT22;61501;43.316;5.372;2023-12-07T14:02:19;15.30;69.10
73277;DHT22;61501;43.316;5.372;2023-12-07T14:04:48;14.80;71.20
73277;DHT22;61501;43.316;5.372;2023-12-07T14:07:20;14.60;72.50
73277;DHT22;61501;43.316;5.372;2023-12-07T14:09:48;14.00;76.40
73277;DHT22;61501;43.316;5.372;2023-12-07T14:12:14;13.70;79.70
73277;DHT22;61501;43.316;5.372;2023-12-07T14:14:40;13.50;80.10
73277;DHT22;61501;43.316;5.372;2023-12-07T14:17:07;13.60;80.40
73277;DHT22;61501;43.316;5.372;2023-12-07T14:19:32;13.40;81.70
73277;DHT22;61501;43.316;5.372;2023-12-07T14:21:58;13.20;82.80
73277;DHT22;61501;43.316;5.372;2023-12-07T14:24:24;13.10;83.30
73277;DHT22;61501;43.316;5.372;2023-12-07T14:26:51;13.10;83.20
73277;DHT22;61501;43.316;5.372;2023-12-07T14:29:17;13.00;83.70
73277;DHT22;61501;43.316;5.372;2023-12-07T14:31:47;12.90;83.50
73277;DHT22;61501;43.316;5.372;2023-12-07T14:34:14;12.80;84.50
73277;DHT22;61501;43.316;5.372;2023-12-07T14:36:41;12.80;84.50
73277;DHT22;61501;43.316;5.372;2023-12-07T14:39:11;12.60;86.80
73277;DHT22;61501;43.316;5.372;2023-12-07T14:41:51;12.60;87.40
73277;DHT22;61501;43.316;5.372;2023-12-07T14:44:17;12.70;87.80
73277;DHT22;61501;43.316;5.372;2023-12-07T14:46:44;12.60;89.00
73277;DHT22;61501;43.316;5.372;2023-12-07T14:49:11;12.60;88.30
73277;DHT22;61501;43.316;5.372;2023-12-07T14:51:37;12.40;89.00
73277;DHT22;61501;43.316;5.372;2023-12-07T14:54:03;12.40;91.10
73277;DHT22;61501;43.316;5.372;2023-12-07T14:56:29;12.20;92.50
73277;DHT22;61501;43.316;5.372;2023-12-07T14:58:54;12.10;93.70
73277;DHT22;61501;43.316;5.372;2023-12-07T15:01:20;12.10;95.20
73277;DHT22;61501;43.316;5.372;2023-12-07T15:03:46;11.90;96.60
73277;DHT22;61501;43.316;5.372;2023-12-07T15:06:11;11.80;98.20
73277;DHT22;61501;43.316;5.372;2023-12-07T15:08:37;11.80;98.20
73277;DHT22;61501;43.316;5.372;2023-12-07T15:11:03;11.90;97.70
73277;DHT22;61501;43.316;5.372;2023-12-07T15:13:29;11.90;99.10
73277;DHT22;61501;43.316;5.372;2023-12-07T15:15:55;11.90;99.90
73277;DHT22;61501;43.316;5.372;2023-12-07T15:18:20;11.80;99.90
73277;DHT22;61501;43.316;5.372;2023-12-07T15:20:46;11.80;99.90
73277;DHT22;61501;43.316;5.372;2023-12-07T15:23:12;11.80;99.90
73277;DHT22;61501;43.316;5.372;2023-12-07T15:25:39;11.70;99.90
73277;DHT22;61501;43.316;5.372;2023-12-07T15:28:04;11.60;99.90
73277;DHT22;61501;43.316;5.372;2023-12-07T15:30:30;11.60;99.90
73277;DHT22;61501;43.316;5.372;2023-12-07T15:32:59;11.60;99.90
73277;DHT22;61501;43.316;5.372;2023-12-07T15:35:25;11.60;99.90
73277;DHT22;61501;43.316;5.372;2023-12-07T15:37:50;11.60;99.90
73277;DHT22;61501;43.316;5.372;2023-12-07T15:40:16;11.50;99.90
73277;DHT22;61501;43.316;5.372;2023-12-07T15:42:42;11.40;99.90
73277;DHT22;61501;43.316;5.372;2023-12-07T15:45:07;11.40;99.90